Time;durP1;ratioP1;P1;durP2;ratioP2;P2;SDS_P1;SDS_P2;PMS_P1;PMS_P2;Temp;Humidity;BMP_temperature;BMP_pressure;BME280_temperature;BME280_humidity;BME280_pressure;Samples;Min_cycle;Max_cycle;Signal;HPM_P1;HPM_P2
2021/04/05 00:02:24;;;;;;;2.83;0.90;;;11.00;53.80;;;;;;4995925;28;20046;-80
2021/04/05 00:04:51;;;;;;;0.75;0.47;;;10.90;54.00;;;;;;4995528;28;20038;-81
2021/04/05 00:07:17;;;;;;;6.50;0.75;;;10.80;54.20;;;;;;4995222;28;20061;-81
2021/04/05 00:09:43;;;;;;;1.08;0.40;;;10.80;54.40;;;;;;4979056;28;20038;-80
2021/04/05 00:12:09;;;;;;;1.73;1.25;;;10.70;54.50;;;;;;4996127;28;20036;-80
2021/04/05 00:14:39;;;;;;;0.50;0.10;;;10.70;54.60;;;;;;4996145;28;20041;-80
2021/04/05 00:17:05;;;;;;;0.90;0.20;;;10.70;54.80;;;;;;4995674;28;20403;-82
2021/04/05 00:19:32;;;;;;;1.02;0.55;;;10.60;54.80;;;;;;4996137;28;20053;-80
2021/04/05 00:21:59;;;;;;;2.47;0.90;;;10.60;54.90;;;;;;4974623;28;20042;-80
2021/04/05 00:24:25;;;;;;;2.47;0.65;;;10.50;55.00;;;;;;4993175;28;20042;-81
2021/04/05 00:26:51;;;;;;;3.53;1.00;;;10.50;55.00;;;;;;4995777;28;20030;-81
2021/04/05 00:29:17;;;;;;;0.55;0.30;;;10.50;55.00;;;;;;4994730;28;20033;-81
2021/04/05 00:31:43;;;;;;;1.15;0.82;;;10.50;55.00;;;;;;4994722;28;20042;-80
2021/04/05 00:34:09;;;;;;;6.70;1.27;;;10.50;54.90;;;;;;4993778;28;20087;-80
2021/04/05 00:36:35;;;;;;;1.58;0.40;;;10.50;54.90;;;;;;4995411;28;20042;-81
2021/04/05 00:39:03;;;;;;;3.10;0.60;;;10.60;54.80;;;;;;4994583;28;20045;-80
2021/04/05 00:41:29;;;;;;;9.63;0.73;;;10.60;54.80;;;;;;4995674;28;20034;-80
2021/04/05 00:43:55;;;;;;;5.55;0.50;;;10.60;54.80;;;;;;4996072;28;20518;-81
2021/04/05 00:46:25;;;;;;;2.42;0.40;;;10.60;54.90;;;;;;4993105;28;20042;-81
2021/04/05 00:48:51;;;;;;;2.38;0.70;;;10.60;54.90;;;;;;4993705;28;20039;-81
2021/04/05 00:51:22;;;;;;;1.95;0.40;;;10.60;54.90;;;;;;4993960;28;20034;-81
2021/04/05 00:53:49;;;;;;;1.77;0.45;;;10.60;55.00;;;;;;4993252;28;20468;-80
2021/04/05 00:56:16;;;;;;;2.13;0.60;;;10.60;55.00;;;;;;4994231;28;20034;-80
2021/04/05 00:58:42;;;;;;;1.23;0.50;;;10.60;55.00;;;;;;4980078;28;20022;-80
2021/04/05 01:01:13;;;;;;;2.30;0.77;;;10.60;55.00;;;;;;4993032;28;20034;-80
2021/04/05 01:03:41;;;;;;;1.00;0.47;;;10.60;55.00;;;;;;5010321;28;20399;-81
2021/04/05 01:06:10;;;;;;;4.50;0.52;;;10.60;55.00;;;;;;4993585;28;20049;-80
2021/04/05 01:08:36;;;;;;;0.93;0.73;;;10.50;55.60;;;;;;4995300;28;20033;-80
2021/04/05 01:11:02;;;;;;;1.63;0.80;;;10.50;55.10;;;;;;4995147;28;20041;-83
2021/04/05 01:13:28;;;;;;;0.80;0.60;;;10.50;55.10;;;;;;4995199;28;20038;-80
2021/04/05 01:15:55;;;;;;;7.00;1.33;;;10.50;55.30;;;;;;4993868;28;20058;-82
2021/04/05 01:18:21;;;;;;;2.50;1.15;;;10.40;55.20;;;;;;4995118;28;20049;-81
2021/04/05 01:20:47;;;;;;;3.55;1.00;;;10.40;55.40;;;;;;4994935;28;20034;-80
2021/04/05 01:23:17;;;;;;;2.45;0.88;;;10.40;55.40;;;;;;4993904;28;20033;-80
2021/04/05 01:25:45;;;;;;;1.90;0.50;;;10.30;55.50;;;;;;4979623;28;20030;-80
2021/04/05 01:28:11;;;;;;;4.85;1.52;;;10.30;55.50;;;;;;4990083;28;20038;-80
2021/04/05 01:30:45;;;;;;;6.97;1.08;;;10.30;55.60;;;;;;4994248;28;20038;-81
2021/04/05 01:33:18;;;;;;;1.45;0.40;;;10.30;55.70;;;;;;4994572;28;20019;-80
2021/04/05 01:35:58;;;;;;;2.45;1.45;;;10.20;55.70;;;;;;4994260;28;20041;-81
2021/04/05 01:38:25;;;;;;;1.10;0.40;;;10.10;55.70;;;;;;4993474;28;20025;-80
2021/04/05 01:41:22;;;;;;;7.57;0.88;;;10.10;55.70;;;;;;4994700;28;20030;-80
2021/04/05 01:43:48;;;;;;;1.80;0.47;;;10.10;55.90;;;;;;4977981;28;20475;-80
2021/04/05 01:46:15;;;;;;;0.98;0.57;;;10.10;55.90;;;;;;4992907;28;20042;-80
2021/04/05 01:48:42;;;;;;;11.07;1.17;;;10.00;55.90;;;;;;4994171;28;20496;-80
2021/04/05 01:51:09;;;;;;;1.38;0.20;;;10.00;55.90;;;;;;4993263;28;20033;-80
2021/04/05 01:53:37;;;;;;;0.50;0.20;;;10.00;56.00;;;;;;4993206;28;20022;-82
2021/04/05 01:56:04;;;;;;;2.15;0.55;;;10.00;56.10;;;;;;4994357;28;20045;-81
2021/04/05 01:58:31;;;;;;;4.53;0.88;;;9.90;56.10;;;;;;4992788;28;20049;-80
2021/04/05 02:00:57;;;;;;;0.28;0.20;;;9.90;56.10;;;;;;4959794;28;20038;-80
2021/04/05 02:03:23;;;;;;;1.20;0.77;;;9.90;56.20;;;;;;4989013;28;20038;-79
2021/04/05 02:05:49;;;;;;;2.08;0.73;;;9.90;56.20;;;;;;4984199;28;20053;-80
2021/04/05 02:08:23;;;;;;;0.65;0.30;;;9.90;56.30;;;;;;4983922;28;20034;-80
2021/04/05 02:10:50;;;;;;;0.22;0.15;;;9.80;56.50;;;;;;4972669;28;20043;-82
2021/04/05 02:13:19;;;;;;;2.83;0.60;;;9.70;56.40;;;;;;4990306;28;20029;-80
2021/04/05 02:15:46;;;;;;;2.28;0.68;;;9.70;56.40;;;;;;4990328;28;20038;-81
2021/04/05 02:18:13;;;;;;;2.58;0.40;;;9.70;56.50;;;;;;4986035;28;20491;-80
2021/04/05 02:20:39;;;;;;;0.70;0.40;;;9.70;57.10;;;;;;4987043;28;20022;-80
2021/04/05 02:23:05;;;;;;;4.38;1.05;;;9.60;56.60;;;;;;4987209;28;20053;-80
2021/04/05 02:25:31;;;;;;;1.05;0.63;;;9.60;56.60;;;;;;4988593;28;20365;-80
2021/04/05 02:27:57;;;;;;;0.60;0.40;;;9.60;56.60;;;;;;4988889;28;20058;-81
2021/04/05 02:30:28;;;;;;;13.15;0.70;;;9.50;56.60;;;;;;4986398;28;20041;-80
2021/04/05 02:32:57;;;;;;;3.05;1.00;;;9.50;56.70;;;;;;4986682;28;20483;-80
2021/04/05 02:35:24;;;;;;;1.50;0.65;;;9.50;56.70;;;;;;4987496;28;20530;-80
2021/04/05 02:37:51;;;;;;;1.70;0.32;;;9.50;56.70;;;;;;4992287;28;20391;-80
2021/04/05 02:40:18;;;;;;;0.75;0.20;;;9.40;56.70;;;;;;4991705;28;20479;-80
2021/04/05 02:42:44;;;;;;;6.47;0.98;;;9.40;56.80;;;;;;4993814;28;20037;-80
2021/04/05 02:45:10;;;;;;;0.22;0.20;;;9.40;56.90;;;;;;4991984;28;20050;-80
2021/04/05 02:47:37;;;;;;;1.27;0.88;;;9.30;56.90;;;;;;4992112;28;20574;-80
2021/04/05 02:50:04;;;;;;;2.10;0.68;;;9.30;56.90;;;;;;4992372;28;20038;-80
2021/04/05 02:52:32;;;;;;;1.08;0.47;;;9.30;57.00;;;;;;4993985;28;20034;-80
2021/04/05 02:54:58;;;;;;;1.73;0.80;;;9.20;57.00;;;;;;4992886;28;20046;-80
2021/04/05 02:57:24;;;;;;;2.05;0.82;;;9.20;57.10;;;;;;4992367;28;20410;-80
2021/04/05 02:59:52;;;;;;;0.80;0.43;;;9.20;57.10;;;;;;4992382;28;20022;-80
2021/04/05 03:02:18;;;;;;;1.70;0.70;;;9.10;57.10;;;;;;4991497;28;20057;-80
2021/04/05 03:04:44;;;;;;;3.60;0.75;;;9.10;57.20;;;;;;4992360;28;20022;-80
2021/04/05 03:07:10;;;;;;;1.48;1.10;;;9.10;57.20;;;;;;4975284;28;20105;-80
2021/04/05 03:09:36;;;;;;;1.85;0.95;;;9.00;57.20;;;;;;4992269;28;20045;-81
2021/04/05 03:12:03;;;;;;;5.95;0.50;;;9.00;57.20;;;;;;4992322;28;20399;-80
2021/04/05 03:14:29;;;;;;;0.85;0.30;;;9.00;57.30;;;;;;4993565;28;20033;-80
2021/04/05 03:16:55;;;;;;;1.77;0.77;;;9.00;57.30;;;;;;4993530;28;20050;-80
2021/04/05 03:19:21;;;;;;;1.38;0.50;;;9.00;57.40;;;;;;4978660;28;20034;-79
2021/04/05 03:21:47;;;;;;;0.75;0.50;;;9.00;57.40;;;;;;4979514;28;20476;-79
2021/04/05 03:24:13;;;;;;;3.50;0.75;;;8.90;57.40;;;;;;4995882;28;20038;-79
2021/04/05 03:26:40;;;;;;;2.35;0.55;;;8.90;57.40;;;;;;4997089;28;20041;-80
2021/04/05 03:29:07;;;;;;;0.82;0.50;;;8.90;57.50;;;;;;4996906;28;20030;-80
2021/04/05 03:31:33;;;;;;;1.65;0.25;;;8.90;57.50;;;;;;4994921;28;20042;-80
2021/04/05 03:34:18;;;;;;;1.55;0.43;;;8.80;57.50;;;;;;4963150;28;20372;-79
2021/04/05 03:36:54;;;;;;;1.67;0.60;;;8.80;57.60;;;;;;4995850;28;20049;-80
2021/04/05 03:39:20;;;;;;;3.20;0.85;;;8.80;57.60;;;;;;4995658;28;20076;-81
2021/04/05 03:42:08;;;;;;;0.70;0.50;;;8.70;57.50;;;;;;4995746;28;20038;-80
2021/04/05 03:44:47;;;;;;;5.28;1.33;;;8.70;57.70;;;;;;4995180;28;20045;-80
2021/04/05 03:47:30;;;;;;;4.43;0.98;;;8.70;57.60;;;;;;4995025;28;20037;-79
2021/04/05 03:50:07;;;;;;;0.65;0.45;;;8.70;57.70;;;;;;4981772;28;20049;-80
2021/04/05 03:52:42;;;;;;;1.42;0.55;;;8.70;57.70;;;;;;4996676;28;20034;-80
2021/04/05 03:55:09;;;;;;;4.28;0.85;;;8.60;57.70;;;;;;4979068;28;20030;-80
2021/04/05 03:57:36;;;;;;;0.90;0.47;;;8.60;57.70;;;;;;4978785;28;20054;-80
2021/04/05 04:00:09;;;;;;;1.67;0.50;;;8.60;57.70;;;;;;4994353;28;20045;-81
2021/04/05 04:02:49;;;;;;;0.52;0.52;;;8.60;57.80;;;;;;4995300;28;20049;-80
2021/04/05 04:05:21;;;;;;;1.17;0.40;;;8.50;57.90;;;;;;4995483;28;20044;-79
2021/04/05 04:10:18;;;;;;;1.27;0.57;;;8.50;57.90;;;;;;4994751;28;20038;-79
2021/04/05 04:12:47;;;;;;;7.10;0.40;;;8.40;57.90;;;;;;4995491;28;20034;-79
2021/04/05 04:15:13;;;;;;;0.70;0.40;;;8.40;58.00;;;;;;4994273;28;20427;-81
2021/04/05 04:17:39;;;;;;;0.40;0.22;;;8.40;58.00;;;;;;4994898;28;20046;-80
2021/04/05 04:20:11;;;;;;;1.05;0.57;;;8.40;58.60;;;;;;4996070;28;20027;-80
2021/04/05 04:22:37;;;;;;;;;;;8.40;58.10;;;;;;4995552;28;20034;-80
2021/04/05 04:25:04;;;;;;;0.60;0.40;;;8.40;58.10;;;;;;4994255;28;20374;-79
2021/04/05 04:27:30;;;;;;;1.42;0.75;;;8.30;57.90;;;;;;4994732;28;20037;-80
2021/04/05 04:29:56;;;;;;;1.63;0.93;;;8.30;58.00;;;;;;4995513;28;20034;-81
2021/04/05 04:32:23;;;;;;;3.70;0.63;;;8.30;58.10;;;;;;4995705;28;20047;-81
2021/04/05 04:34:49;;;;;;;2.60;0.75;;;8.20;58.10;;;;;;4996055;28;20035;-80
2021/04/05 04:37:16;;;;;;;1.42;0.38;;;8.20;58.10;;;;;;4993769;28;20039;-80
2021/04/05 04:39:42;;;;;;;7.38;0.77;;;8.20;58.20;;;;;;4995664;28;20027;-80
2021/04/05 04:42:09;;;;;;;1.08;0.45;;;8.20;58.30;;;;;;4994656;28;20030;-80
2021/04/05 04:44:35;;;;;;;1.70;0.57;;;8.10;58.20;;;;;;4994006;28;20041;-80
2021/04/05 04:47:01;;;;;;;5.65;0.63;;;8.10;58.30;;;;;;4995046;28;20514;-80
2021/04/05 04:49:27;;;;;;;1.40;0.32;;;8.10;58.30;;;;;;4976909;28;20050;-81
2021/04/05 04:51:53;;;;;;;1.08;0.82;;;8.10;58.30;;;;;;4994957;28;20033;-79
2021/04/05 04:54:19;;;;;;;0.65;0.50;;;8.10;58.40;;;;;;4994353;28;20033;-80
2021/04/05 04:56:45;;;;;;;4.95;1.35;;;8.10;58.40;;;;;;4994887;28;20038;-80
2021/04/05 04:59:12;;;;;;;1.85;0.98;;;8.10;58.40;;;;;;4974972;28;20039;-80
2021/04/05 05:01:44;;;;;;;5.50;0.88;;;8.10;58.40;;;;;;4994833;28;20041;-80
2021/04/05 05:04:26;;;;;;;2.88;0.95;;;8.10;58.50;;;;;;4990796;28;20488;-80
2021/04/05 05:06:53;;;;;;;0.73;0.30;;;8.10;58.50;;;;;;4993086;28;20027;-80
2021/04/05 05:09:19;;;;;;;1.25;0.68;;;8.00;58.50;;;;;;4993901;28;20023;-81
2021/04/05 05:11:46;;;;;;;1.73;0.52;;;8.10;58.60;;;;;;4993512;28;20038;-80
2021/04/05 05:14:13;;;;;;;1.58;1.13;;;8.10;58.60;;;;;;4993954;28;20025;-80
2021/04/05 05:16:39;;;;;;;0.77;0.47;;;8.00;58.60;;;;;;4993373;28;20050;-80
2021/04/05 05:19:05;;;;;;;2.40;0.45;;;8.10;58.60;;;;;;4993049;28;20030;-79
2021/04/05 05:21:43;;;;;;;1.88;0.60;;;8.00;58.60;;;;;;4993713;28;20057;-79
2021/04/05 05:24:12;;;;;;;3.15;0.75;;;8.00;58.70;;;;;;4994813;28;20038;-80
2021/04/05 05:26:38;;;;;;;0.20;0.10;;;8.00;58.70;;;;;;4993184;28;20053;-80
2021/04/05 05:29:07;;;;;;;0.85;0.25;;;8.00;58.70;;;;;;4993691;28;20045;-80
2021/04/05 05:31:35;;;;;;;0.88;0.45;;;8.00;58.70;;;;;;4994584;28;20511;-80
2021/04/05 05:34:02;;;;;;;0.95;0.40;;;7.90;58.70;;;;;;4992640;28;20022;-79
2021/04/05 05:36:28;;;;;;;1.17;0.45;;;7.90;58.80;;;;;;4993494;28;20050;-79
2021/04/05 05:38:56;;;;;;;1.20;0.40;;;7.90;58.90;;;;;;4992944;28;20034;-82
2021/04/05 05:41:37;;;;;;;1.52;0.68;;;7.90;58.90;;;;;;4993157;28;20026;-80
2021/04/05 05:44:05;;;;;;;2.90;0.37;;;7.80;58.90;;;;;;4993524;28;20056;-79
2021/04/05 05:46:51;;;;;;;7.05;1.15;;;7.80;58.90;;;;;;4994316;28;20065;-80
2021/04/05 05:49:29;;;;;;;2.72;1.20;;;7.80;59.00;;;;;;4977602;28;20464;-79
2021/04/05 05:51:57;;;;;;;2.05;1.08;;;7.90;59.00;;;;;;4990611;28;20038;-79
2021/04/05 05:55:00;;;;;;;5.47;0.95;;;7.90;58.90;;;;;;4994394;28;20037;-79
2021/04/05 05:57:27;;;;;;;8.63;1.13;;;7.90;58.90;;;;;;4994442;28;20038;-80
2021/04/05 05:59:57;;;;;;;0.22;0.20;;;8.00;58.90;;;;;;4993300;28;20027;-81
2021/04/05 06:02:29;;;;;;;0.67;0.30;;;8.00;58.80;;;;;;4992641;28;20034;-80
2021/04/05 06:05:32;;;;;;;1.48;0.70;;;8.00;59.00;;;;;;4994218;28;20658;-80
2021/04/05 06:08:04;;;;;;;6.05;1.00;;;7.90;59.30;;;;;;4980891;28;20038;-80
2021/04/05 06:10:36;;;;;;;0.73;0.22;;;7.90;59.40;;;;;;4992992;28;20038;-80
2021/04/05 06:13:08;;;;;;;2.20;1.02;;;7.80;59.50;;;;;;4993479;28;20034;-80
2021/04/05 06:16:13;;;;;;;0.52;0.43;;;7.80;59.60;;;;;;4993554;28;20483;-79
2021/04/05 06:19:09;;;;;;;7.72;0.50;;;7.80;59.80;;;;;;4957579;28;20054;-80
2021/04/05 06:22:14;;;;;;;1.05;0.68;;;7.70;60.20;;;;;;4943353;28;20054;-80
2021/04/05 06:24:55;;;;;;;0.90;0.68;;;7.70;60.60;;;;;;4964404;28;20386;-81
2021/04/05 06:27:30;;;;;;;1.88;0.68;;;7.70;60.50;;;;;;4972464;28;20523;-80
2021/04/05 06:30:08;;;;;;;2.40;0.43;;;7.70;60.40;;;;;;4947163;29;20035;-80
2021/04/05 06:32:54;;;;;;;4.18;1.75;;;7.70;60.30;;;;;;4962999;28;20031;-80
2021/04/05 06:35:39;;;;;;;6.00;0.85;;;7.80;60.10;;;;;;4970438;28;20558;-80
2021/04/05 06:38:10;;;;;;;0.20;0.10;;;7.90;60.20;;;;;;4971961;28;20607;-80
2021/04/05 06:40:36;;;;;;;5.28;1.45;;;7.90;60.00;;;;;;4956416;28;20043;-80
2021/04/05 06:43:24;;;;;;;1.92;0.55;;;8.00;60.00;;;;;;4971419;28;20047;-80
2021/04/05 06:46:07;;;;;;;5.22;0.85;;;8.00;60.00;;;;;;4972906;28;20047;-80
2021/04/05 06:49:04;;;;;;;1.20;0.55;;;8.10;60.00;;;;;;4972071;28;20043;-80
2021/04/05 06:51:57;;;;;;;1.08;0.50;;;8.20;59.90;;;;;;4973575;28;20030;-80
2021/04/05 06:54:47;;;;;;;1.35;0.28;;;8.20;59.80;;;;;;4975950;28;20035;-80
2021/04/05 06:57:45;;;;;;;13.20;1.27;;;8.30;59.80;;;;;;4994307;28;20034;-80
2021/04/05 07:00:15;;;;;;;3.58;0.68;;;8.40;59.80;;;;;;4975265;28;20054;-80
2021/04/05 07:02:43;;;;;;;3.22;0.32;;;8.40;59.70;;;;;;4953960;28;20054;-80
2021/04/05 07:05:23;;;;;;;1.20;0.93;;;8.50;59.70;;;;;;4975973;28;20034;-80
2021/04/05 07:08:25;;;;;;;1.02;0.50;;;8.60;59.70;;;;;;4961057;28;20039;-80
2021/04/05 07:11:07;;;;;;;1.17;0.63;;;8.60;59.70;;;;;;4975905;28;20038;-80
2021/04/05 07:13:40;;;;;;;2.20;0.70;;;8.70;59.60;;;;;;4976036;28;20515;-80
2021/04/05 07:16:13;;;;;;;10.23;1.48;;;8.70;59.60;;;;;;4974213;28;20487;-80
2021/04/05 07:19:04;;;;;;;4.45;0.73;;;8.80;59.60;;;;;;4958131;28;20085;-80
2021/04/05 07:21:58;;;;;;;1.77;0.63;;;9.00;59.60;;;;;;4975628;28;20089;-80
2021/04/05 07:24:30;;;;;;;1.60;0.68;;;9.20;59.40;;;;;;4916554;29;20397;-80
2021/04/05 07:27:19;;;;;;;2.60;0.38;;;9.40;59.20;;;;;;4916757;29;20040;-81
2021/04/05 07:29:51;;;;;;;2.75;0.40;;;9.70;58.90;;;;;;4898333;29;20036;-80
2021/04/05 07:32:30;;;;;;;12.70;1.00;;;10.00;58.60;;;;;;4905709;29;20036;-80
2021/04/05 07:35:27;;;;;;;2.20;1.15;;;10.40;58.20;;;;;;4903232;29;20051;-82
2021/04/05 07:38:06;;;;;;;10.57;1.08;;;10.90;57.60;;;;;;4895819;29;20040;-81
2021/04/05 07:40:42;;;;;;;1.27;0.50;;;11.40;57.00;;;;;;4918375;29;20031;-81
2021/04/05 07:43:14;;;;;;;3.20;0.68;;;11.80;57.20;;;;;;4916965;29;20047;-81
2021/04/05 07:45:57;;;;;;;2.92;1.13;;;12.10;56.20;;;;;;4933121;28;20048;-80
2021/04/05 07:48:27;;;;;;;2.90;0.50;;;12.50;55.90;;;;;;4918121;29;20051;-81
2021/04/05 07:50:57;;;;;;;1.48;0.45;;;12.70;55.60;;;;;;4924133;29;20043;-81
2021/04/05 07:54:02;;;;;;;1.90;0.43;;;13.00;55.60;;;;;;4918453;29;20047;-81
2021/04/05 07:56:35;;;;;;;4.78;0.95;;;13.10;55.50;;;;;;4944260;28;20032;-81
2021/04/05 07:59:25;;;;;;;2.13;0.93;;;13.20;55.40;;;;;;4918740;29;20432;-81
2021/04/05 08:01:54;;;;;;;1.33;0.70;;;13.50;55.50;;;;;;4972152;28;20488;-81
2021/04/05 08:04:42;;;;;;;9.40;1.05;;;13.60;55.20;;;;;;4994214;28;20030;-81
2021/04/05 08:07:31;;;;;;;2.08;0.73;;;13.80;55.20;;;;;;4953092;29;20055;-81
2021/04/05 08:10:13;;;;;;;0.88;0.38;;;13.90;55.20;;;;;;4938040;29;20035;-81
2021/04/05 08:13:14;;;;;;;;;;;13.80;55.40;;;;;;4941647;29;20047;-81
2021/04/05 08:15:58;;;;;;;2.45;0.70;;;13.50;55.70;;;;;;4899303;29;20399;-81
2021/04/05 08:18:48;;;;;;;1.83;1.20;;;13.10;56.30;;;;;;4884283;29;20060;-82
2021/04/05 08:21:23;;;;;;;2.03;0.85;;;12.90;56.80;;;;;;4879723;29;20067;-80
2021/04/05 08:24:26;;;;;;;3.33;0.55;;;12.60;57.20;;;;;;4884424;29;20429;-80
2021/04/05 08:27:15;;;;;;;6.20;0.55;;;12.40;57.50;;;;;;4899986;29;20028;-81
2021/04/05 08:29:49;;;;;;;2.95;0.35;;;12.10;57.80;;;;;;4890034;29;20060;-81
2021/04/05 08:32:39;;;;;;;1.92;0.85;;;12.00;58.20;;;;;;4885516;29;20028;-80
2021/04/05 08:35:15;;;;;;;13.27;1.58;;;11.90;58.30;;;;;;4883819;29;20039;-81
2021/04/05 08:38:17;;;;;;;1.88;1.08;;;11.80;58.40;;;;;;4879953;29;20076;-80
2021/04/05 08:41:02;;;;;;;1.85;0.80;;;11.80;58.40;;;;;;4867786;29;20048;-80
2021/04/05 08:44:00;;;;;;;5.75;0.43;;;11.80;58.40;;;;;;4917077;28;20026;-83
2021/04/05 08:46:31;;;;;;;8.45;0.52;;;11.80;58.30;;;;;;4937618;28;763585;-80
2021/04/05 08:49:02;;;;;;;1.33;0.43;;;11.90;58.20;;;;;;4963800;28;20502;-80
2021/04/05 08:51:32;;;;;;;1.85;0.70;;;11.90;58.20;;;;;;4994167;28;20034;-80
2021/04/05 08:54:02;;;;;;;9.15;0.60;;;11.80;58.20;;;;;;4994226;28;20039;-83
2021/04/05 08:56:34;;;;;;;1.60;0.57;;;11.80;58.40;;;;;;4994225;28;20383;-81
2021/04/05 08:59:04;;;;;;;7.30;1.23;;;11.70;58.40;;;;;;4995329;28;20042;-80
2021/04/05 09:01:43;;;;;;;1.42;0.60;;;11.70;58.50;;;;;;4993452;28;20035;-81
2021/04/05 09:04:10;;;;;;;4.53;1.13;;;11.70;58.60;;;;;;4990210;28;20069;-81
2021/04/05 09:07:05;;;;;;;8.98;1.17;;;11.70;58.50;;;;;;4993730;28;20038;-81
2021/04/05 09:09:32;;;;;;;0.77;0.35;;;11.70;58.60;;;;;;4993891;28;20491;-81
2021/04/05 09:11:58;;;;;;;4.28;1.23;;;11.70;58.50;;;;;;4995188;28;20034;-81
2021/04/05 09:14:24;;;;;;;0.00;0.00;;;11.70;58.50;;;;;;4993130;28;20026;-80
2021/04/05 09:17:24;;;;;;;0.85;0.40;;;11.80;58.50;;;;;;4993573;28;20053;-80
2021/04/05 09:20:21;;;;;;;1.45;0.85;;;11.70;58.60;;;;;;4979119;28;20399;-81
2021/04/05 09:22:53;;;;;;;1.25;0.50;;;11.60;58.70;;;;;;4979132;28;20034;-81
2021/04/05 09:25:37;;;;;;;1.00;0.32;;;11.50;58.90;;;;;;4994122;28;20041;-80
2021/04/05 09:28:24;;;;;;;1.23;0.65;;;11.40;59.00;;;;;;4993885;28;20395;-81
2021/04/05 09:31:17;;;;;;;1.05;0.40;;;11.40;59.10;;;;;;4994210;28;20042;-80
2021/04/05 09:34:01;;;;;;;1.98;0.82;;;11.40;59.10;;;;;;4993330;28;20034;-80
2021/04/05 09:36:46;;;;;;;2.00;0.60;;;11.40;59.10;;;;;;4994722;28;20030;-80
2021/04/05 09:39:19;;;;;;;0.57;0.30;;;11.40;59.10;;;;;;4994642;28;20042;-80
2021/04/05 09:42:04;;;;;;;0.68;0.50;;;11.40;59.10;;;;;;4994686;28;20033;-80
2021/04/05 09:44:56;;;;;;;0.73;0.45;;;11.30;59.20;;;;;;4993427;28;20068;-80
2021/04/05 09:47:57;;;;;;;0.63;0.32;;;11.30;59.40;;;;;;4992745;28;20042;-80
2021/04/05 09:50:38;;;;;;;0.57;0.30;;;11.20;59.50;;;;;;4972689;28;20038;-81
2021/04/05 09:53:25;;;;;;;0.80;0.70;;;11.30;59.60;;;;;;4973071;28;20038;-81
2021/04/05 09:55:54;;;;;;;4.78;1.60;;;11.40;59.30;;;;;;4973059;28;20026;-81
2021/04/05 09:58:22;;;;;;;1.05;0.50;;;11.70;58.90;;;;;;4971668;28;20046;-81
2021/04/05 10:00:55;;;;;;;4.22;0.75;;;11.80;58.60;;;;;;4956162;28;20027;-81
2021/04/05 10:03:21;;;;;;;1.23;0.70;;;12.20;58.40;;;;;;4940621;28;20031;-80
2021/04/05 10:05:49;;;;;;;1.77;0.80;;;12.50;58.00;;;;;;4937268;29;20408;-81
2021/04/05 10:08:22;;;;;;;1.65;0.73;;;12.90;57.50;;;;;;4954485;28;20477;-81
2021/04/05 10:10:48;;;;;;;0.93;0.40;;;13.30;57.10;;;;;;4942446;28;20039;-83
2021/04/05 10:13:14;;;;;;;6.22;1.02;;;13.60;56.70;;;;;;4971650;28;20043;-82
2021/04/05 10:15:41;;;;;;;2.28;0.70;;;13.90;56.40;;;;;;4973458;28;20050;-82
2021/04/05 10:18:10;;;;;;;0.22;0.05;;;14.10;56.20;;;;;;4940498;28;20065;-81
2021/04/05 10:20:36;;;;;;;14.35;0.82;;;14.30;56.00;;;;;;4940846;28;20046;-81
2021/04/05 10:23:04;;;;;;;4.05;1.77;;;14.40;55.90;;;;;;4940387;28;20047;-82
2021/04/05 10:25:30;;;;;;;3.15;0.95;;;14.50;56.40;;;;;;4959752;28;20480;-82
2021/04/05 10:27:58;;;;;;;6.32;1.95;;;14.70;55.70;;;;;;4959961;28;20046;-82
2021/04/05 10:30:33;;;;;;;2.45;0.60;;;14.90;55.60;;;;;;4991943;28;20045;-82
2021/04/05 10:33:22;;;;;;;1.40;0.38;;;15.00;55.40;;;;;;4977105;28;20538;-82
2021/04/05 10:35:49;;;;;;;6.72;1.25;;;15.20;55.20;;;;;;4993924;28;20549;-82
2021/04/05 10:38:18;;;;;;;3.15;0.70;;;15.20;55.10;;;;;;4992328;28;20034;-81
2021/04/05 10:40:44;;;;;;;4.10;1.00;;;15.30;55.00;;;;;;4976915;28;20026;-81
2021/04/05 10:43:32;;;;;;;0.57;0.20;;;15.40;55.00;;;;;;4987819;28;20046;-82
2021/04/05 10:46:07;;;;;;;2.00;0.65;;;15.20;55.00;;;;;;4989343;28;20049;-82
2021/04/05 10:48:39;;;;;;;11.52;0.60;;;15.00;55.40;;;;;;4961602;28;20038;-81
2021/04/05 10:51:09;;;;;;;8.88;0.32;;;14.80;56.30;;;;;;4992559;28;20026;-81
2021/04/05 10:53:39;;;;;;;4.90;0.43;;;14.70;55.90;;;;;;4992508;28;20030;-81
2021/04/05 10:56:07;;;;;;;0.43;0.10;;;14.70;55.90;;;;;;4992429;28;20499;-83
2021/04/05 10:58:57;;;;;;;1.58;0.30;;;14.60;56.00;;;;;;4992526;28;20049;-81
2021/04/05 11:01:24;;;;;;;1.13;0.55;;;14.60;56.00;;;;;;4990362;28;20039;-82
2021/04/05 11:03:51;;;;;;;1.45;0.50;;;14.60;56.10;;;;;;4992089;28;20031;-82
2021/04/05 11:06:20;;;;;;;5.45;0.50;;;14.50;56.00;;;;;;4973069;28;20543;-81
2021/04/05 11:08:50;;;;;;;0.95;0.28;;;14.50;56.00;;;;;;4986475;28;20033;-81
2021/04/05 11:11:20;;;;;;;1.30;0.57;;;14.50;56.00;;;;;;4992551;28;20033;-82
2021/04/05 11:13:51;;;;;;;2.85;0.65;;;14.40;56.10;;;;;;4992193;28;20285;-81
2021/04/05 11:16:19;;;;;;;3.67;1.13;;;14.30;56.20;;;;;;4990691;28;20539;-81
2021/04/05 11:18:46;;;;;;;1.17;0.45;;;14.20;56.30;;;;;;4975760;28;20050;-80
2021/04/05 11:21:13;;;;;;;1.98;0.63;;;14.20;56.30;;;;;;4975999;28;20034;-80
2021/04/05 11:23:39;;;;;;;2.03;0.95;;;14.20;56.30;;;;;;4976358;28;20042;-81
2021/04/05 11:26:06;;;;;;;11.23;0.30;;;14.20;56.20;;;;;;4976260;28;20027;-80
2021/04/05 11:28:33;;;;;;;0.40;0.10;;;14.30;56.30;;;;;;4992329;28;20046;-80
2021/04/05 11:31:19;;;;;;;1.05;0.25;;;14.30;56.20;;;;;;4990983;28;20046;-81
2021/04/05 11:33:53;;;;;;;3.65;0.45;;;14.20;56.10;;;;;;4992526;28;20503;-80
2021/04/05 11:36:20;;;;;;;16.17;0.28;;;14.30;56.10;;;;;;4992141;28;20510;-81
2021/04/05 11:38:50;;;;;;;0.13;0.03;;;14.30;56.10;;;;;;4995288;28;20045;-81
2021/04/05 11:41:18;;;;;;;1.58;0.55;;;14.40;56.00;;;;;;4995813;28;20349;-80
2021/04/05 11:43:48;;;;;;;0.60;0.32;;;14.40;55.80;;;;;;4963644;28;20468;-81
2021/04/05 11:46:14;;;;;;;0.75;0.17;;;14.40;55.70;;;;;;4974547;28;20042;-81
2021/04/05 11:48:40;;;;;;;1.10;0.40;;;14.40;56.10;;;;;;4997190;28;20041;-81
2021/04/05 11:51:06;;;;;;;3.22;0.47;;;14.30;55.70;;;;;;4995544;28;20471;-82
2021/04/05 11:53:52;;;;;;;0.20;0.10;;;14.30;55.70;;;;;;4996638;28;20046;-81
2021/04/05 11:56:20;;;;;;;1.02;0.17;;;14.30;55.60;;;;;;4995377;28;20057;-80
2021/04/05 11:59:26;;;;;;;0.47;0.35;;;14.30;55.50;;;;;;4995050;28;20042;-81
2021/04/05 12:02:02;;;;;;;1.42;0.28;;;14.30;55.60;;;;;;4980869;28;20395;-80
2021/04/05 12:04:32;;;;;;;1.00;0.75;;;14.10;55.50;;;;;;4977683;28;20043;-81
2021/04/05 12:07:05;;;;;;;0.77;0.30;;;14.10;55.50;;;;;;4994569;28;20030;-83
2021/04/05 12:09:44;;;;;;;0.73;0.28;;;14.10;55.50;;;;;;4996458;28;20026;-81
2021/04/05 12:12:21;;;;;;;2.15;0.28;;;14.10;55.50;;;;;;4994913;28;20037;-81
2021/04/05 12:14:54;;;;;;;2.20;0.45;;;14.10;55.40;;;;;;4995045;28;20375;-81
2021/04/05 12:17:21;;;;;;;1.48;0.63;;;14.10;55.40;;;;;;4995824;28;20030;-81
2021/04/05 12:19:48;;;;;;;4.57;0.32;;;14.10;55.30;;;;;;4995062;28;20037;-82
2021/04/05 12:22:14;;;;;;;2.83;0.80;;;14.20;55.20;;;;;;4995429;28;20320;-83
2021/04/05 12:24:45;;;;;;;0.80;0.45;;;14.30;55.20;;;;;;4978873;28;20475;-82
2021/04/05 12:27:12;;;;;;;0.93;0.30;;;14.30;55.00;;;;;;4994739;28;20019;-80
2021/04/05 12:29:39;;;;;;;0.17;0.05;;;14.40;55.00;;;;;;4994756;28;20042;-80
2021/04/05 12:32:07;;;;;;;7.72;1.00;;;14.30;55.10;;;;;;4995532;28;20041;-82
2021/04/05 12:34:34;;;;;;;0.20;0.10;;;14.30;55.20;;;;;;4994521;28;20038;-82
2021/04/05 12:37:02;;;;;;;1.15;0.52;;;14.20;55.20;;;;;;4993881;28;20464;-81
2021/04/05 12:39:32;;;;;;;0.10;0.03;;;14.10;55.30;;;;;;4975080;28;20053;-81
2021/04/05 12:41:58;;;;;;;1.15;0.50;;;14.10;55.40;;;;;;4989161;28;20035;-81
2021/04/05 12:44:31;;;;;;;1.98;0.40;;;14.00;55.60;;;;;;4994476;28;20034;-82
2021/04/05 12:46:59;;;;;;;1.58;0.25;;;13.90;55.70;;;;;;4995528;28;20427;-82
2021/04/05 12:49:29;;;;;;;5.57;1.08;;;13.90;55.70;;;;;;4993010;28;20045;-82
2021/04/05 12:52:03;;;;;;;2.78;0.32;;;14.00;55.60;;;;;;4991809;28;20403;-82
2021/04/05 12:54:30;;;;;;;0.70;0.55;;;14.10;55.60;;;;;;4995479;28;20488;-81
2021/04/05 12:56:58;;;;;;;0.98;0.17;;;14.10;55.40;;;;;;4994011;28;20022;-82
2021/04/05 12:59:26;;;;;;;1.20;0.47;;;14.20;55.30;;;;;;4995181;28;20034;-83
2021/04/05 13:02:10;;;;;;;8.73;0.40;;;14.30;55.30;;;;;;4993853;28;20483;-81
2021/04/05 13:04:39;;;;;;;1.42;0.47;;;14.30;55.30;;;;;;4995546;28;20505;-82
2021/04/05 13:07:10;;;;;;;1.33;0.40;;;14.40;55.30;;;;;;4977417;28;20022;-81
2021/04/05 13:09:39;;;;;;;2.92;0.60;;;14.40;55.30;;;;;;4995199;28;20045;-81
2021/04/05 13:12:17;;;;;;;1.48;0.25;;;14.40;55.20;;;;;;4993518;28;20033;-81
2021/04/05 13:15:01;;;;;;;6.65;0.70;;;14.60;55.10;;;;;;4993816;28;20526;-82
2021/04/05 13:17:28;;;;;;;2.72;0.60;;;14.70;54.90;;;;;;4993610;28;20030;-81
2021/04/05 13:20:11;;;;;;;1.05;0.47;;;14.90;54.80;;;;;;4978197;28;20069;-81
2021/04/05 13:22:39;;;;;;;1.98;1.08;;;15.00;54.60;;;;;;4994213;28;20089;-81
2021/04/05 13:25:06;;;;;;;1.50;0.57;;;15.00;54.50;;;;;;4992830;28;20019;-81